sensor_id;sensor_type;location;lat;lon;timestamp;pressure;altitude;pressure_sealevel;temperature;humidity
69751;BME280;57335;52.288;6.056;2024-03-17T00:01:10;102363.28;;;2.69;100.00
69751;BME280;57335;52.288;6.056;2024-03-17T00:03:36;102379.28;;;2.74;100.00
69751;BME280;57335;52.288;6.056;2024-03-17T00:06:02;102368.47;;;2.69;100.00
69751;BME280;57335;52.288;6.056;2024-03-17T00:08:27;102378.38;;;2.75;100.00
69751;BME280;57335;52.288;6.056;2024-03-17T00:10:53;102360.00;;;2.67;100.00
69751;BME280;57335;52.288;6.056;2024-03-17T00:13:25;102374.09;;;2.74;100.00
69751;BME280;57335;52.288;6.056;2024-03-17T00:15:51;102369.03;;;2.72;100.00
69751;BME280;57335;52.288;6.056;2024-03-17T00:18:17;102368.22;;;2.72;100.00
69751;BME280;57335;52.288;6.056;2024-03-17T00:20:43;102357.16;;;2.70;100.00
69751;BME280;57335;52.288;6.056;2024-03-17T00:23:09;102354.56;;;2.70;100.00
69751;BME280;57335;52.288;6.056;2024-03-17T00:25:37;102350.34;;;2.69;100.00
69751;BME280;57335;52.288;6.056;2024-03-17T00:28:03;102346.81;;;2.70;100.00
69751;BME280;57335;52.288;6.056;2024-03-17T00:30:29;102356.47;;;2.68;100.00
69751;BME280;57335;52.288;6.056;2024-03-17T00:32:54;102347.78;;;2.69;100.00
69751;BME280;57335;52.288;6.056;2024-03-17T00:35:20;102336.94;;;2.64;100.00
69751;BME280;57335;52.288;6.056;2024-03-17T00:37:47;102341.03;;;2.66;100.00
69751;BME280;57335;52.288;6.056;2024-03-17T00:40:13;102348.34;;;2.72;100.00
69751;BME280;57335;52.288;6.056;2024-03-17T00:42:39;102353.41;;;2.74;100.00
69751;BME280;57335;52.288;6.056;2024-03-17T00:45:06;102349.88;;;2.75;100.00
69751;BME280;57335;52.288;6.056;2024-03-17T00:47:32;102344.81;;;2.73;100.00
69751;BME280;57335;52.288;6.056;2024-03-17T00:49:58;102340.13;;;2.67;100.00
69751;BME280;57335;52.288;6.056;2024-03-17T00:52:23;102349.19;;;2.73;100.00
69751;BME280;57335;52.288;6.056;2024-03-17T00:54:49;102343.28;;;2.71;100.00
69751;BME280;57335;52.288;6.056;2024-03-17T00:57:15;102341.53;;;2.71;100.00
69751;BME280;57335;52.288;6.056;2024-03-17T00:59:44;102321.03;;;2.68;100.00
69751;BME280;57335;52.288;6.056;2024-03-17T01:02:12;102325.41;;;2.68;100.00
69751;BME280;57335;52.288;6.056;2024-03-17T01:04:42;102328.69;;;2.70;100.00
69751;BME280;57335;52.288;6.056;2024-03-17T01:07:09;102319.50;;;2.66;100.00
69751;BME280;57335;52.288;6.056;2024-03-17T01:09:35;102329.41;;;2.72;100.00
69751;BME280;57335;52.288;6.056;2024-03-17T01:12:00;102320.47;;;2.65;100.00
69751;BME280;57335;52.288;6.056;2024-03-17T01:14:27;102331.38;;;2.68;100.00
69751;BME280;57335;52.288;6.056;2024-03-17T01:16:53;102323.28;;;2.62;100.00
69751;BME280;57335;52.288;6.056;2024-03-17T01:19:19;102326.47;;;2.65;100.00
69751;BME280;57335;52.288;6.056;2024-03-17T01:21:45;102325.75;;;2.63;100.00
69751;BME280;57335;52.288;6.056;2024-03-17T01:24:11;102316.81;;;2.56;100.00
69751;BME280;57335;52.288;6.056;2024-03-17T01:26:37;102315.88;;;2.57;100.00
69751;BME280;57335;52.288;6.056;2024-03-17T01:29:02;102316.69;;;2.57;100.00
69751;BME280;57335;52.288;6.056;2024-03-17T01:31:28;102306.31;;;2.46;100.00
69751;BME280;57335;52.288;6.056;2024-03-17T01:33:53;102302.00;;;2.47;100.00
69751;BME280;57335;52.288;6.056;2024-03-17T01:36:19;102317.16;;;2.51;100.00
69751;BME280;57335;52.288;6.056;2024-03-17T01:38:45;102321.38;;;2.52;100.00
69751;BME280;57335;52.288;6.056;2024-03-17T01:41:10;102316.19;;;2.52;100.00
69751;BME280;57335;52.288;6.056;2024-03-17T01:43:36;102311.88;;;2.53;100.00
69751;BME280;57335;52.288;6.056;2024-03-17T01:46:02;102309.50;;;2.50;100.00
69751;BME280;57335;52.288;6.056;2024-03-17T01:48:28;102306.09;;;2.49;100.00
69751;BME280;57335;52.288;6.056;2024-03-17T01:50:55;102307.50;;;2.53;100.00
69751;BME280;57335;52.288;6.056;2024-03-17T01:53:22;102314.31;;;2.54;100.00
69751;BME280;57335;52.288;6.056;2024-03-17T01:55:52;102311.03;;;2.52;100.00
69751;BME280;57335;52.288;6.056;2024-03-17T01:58:20;102298.56;;;2.46;100.00
69751;BME280;57335;52.288;6.056;2024-03-17T02:00:46;102291.75;;;2.45;100.00
69751;BME280;57335;52.288;6.056;2024-03-17T02:03:11;102290.78;;;2.46;100.00
69751;BME280;57335;52.288;6.056;2024-03-17T02:05:38;102291.50;;;2.48;100.00
69751;BME280;57335;52.288;6.056;2024-03-17T02:08:05;102292.47;;;2.47;100.00
69751;BME280;57335;52.288;6.056;2024-03-17T02:10:30;102282.69;;;2.39;100.00
69751;BME280;57335;52.288;6.056;2024-03-17T02:12:56;102284.44;;;2.39;100.00
69751;BME280;57335;52.288;6.056;2024-03-17T02:15:22;102289.97;;;2.46;100.00
69751;BME280;57335;52.288;6.056;2024-03-17T02:17:47;102290.78;;;2.46;100.00
69751;BME280;57335;52.288;6.056;2024-03-17T02:20:13;102274.22;;;2.37;100.00
69751;BME280;57335;52.288;6.056;2024-03-17T02:22:39;102275.75;;;2.40;100.00
69751;BME280;57335;52.288;6.056;2024-03-17T02:25:05;102280.59;;;2.45;100.00
69751;BME280;57335;52.288;6.056;2024-03-17T02:27:36;102283.28;;;2.43;100.00
69751;BME280;57335;52.288;6.056;2024-03-17T02:30:03;102279.88;;;2.43;100.00
69751;BME280;57335;52.288;6.056;2024-03-17T02:32:30;102258.59;;;2.39;100.00
69751;BME280;57335;52.288;6.056;2024-03-17T02:34:55;102268.09;;;2.38;100.00
69751;BME280;57335;52.288;6.056;2024-03-17T02:37:22;102273.63;;;2.45;100.00
69751;BME280;57335;52.288;6.056;2024-03-17T02:39:47;102272.81;;;2.45;100.00
69751;BME280;57335;52.288;6.056;2024-03-17T02:42:13;102260.56;;;2.35;100.00
69751;BME280;57335;52.288;6.056;2024-03-17T02:44:38;102269.63;;;2.41;100.00
69751;BME280;57335;52.288;6.056;2024-03-17T02:47:06;102277.41;;;2.41;100.00
69751;BME280;57335;52.288;6.056;2024-03-17T02:49:34;102274.09;;;2.39;100.00
69751;BME280;57335;52.288;6.056;2024-03-17T02:52:03;102267.28;;;2.38;100.00
69751;BME280;57335;52.288;6.056;2024-03-17T02:54:30;102276.56;;;2.40;100.00
69751;BME280;57335;52.288;6.056;2024-03-17T02:56:56;102258.09;;;2.34;100.00
69751;BME280;57335;52.288;6.056;2024-03-17T02:59:21;102263.97;;;2.36;100.00
69751;BME280;57335;52.288;6.056;2024-03-17T03:01:47;102268.56;;;2.44;100.00
69751;BME280;57335;52.288;6.056;2024-03-17T03:04:12;102276.22;;;2.45;100.00
69751;BME280;57335;52.288;6.056;2024-03-17T03:06:38;102258.59;;;2.39;100.00
69751;BME280;57335;52.288;6.056;2024-03-17T03:09:04;102255.28;;;2.37;100.00
69751;BME280;57335;52.288;6.056;2024-03-17T03:11:35;102256.69;;;2.41;100.00
69751;BME280;57335;52.288;6.056;2024-03-17T03:14:00;102261.88;;;2.41;100.00
69751;BME280;57335;52.288;6.056;2024-03-17T03:16:27;102264.09;;;2.46;100.00
69751;BME280;57335;52.288;6.056;2024-03-17T03:18:53;102272.00;;;2.55;100.00
69751;BME280;57335;52.288;6.056;2024-03-17T03:21:19;102265.84;;;2.56;100.00
69751;BME280;57335;52.288;6.056;2024-03-17T03:23:47;102246.09;;;2.55;100.00
69751;BME280;57335;52.288;6.056;2024-03-17T03:26:13;102248.22;;;2.62;100.00
69751;BME280;57335;52.288;6.056;2024-03-17T03:28:39;102251.16;;;2.68;100.00
69751;BME280;57335;52.288;6.056;2024-03-17T03:31:04;102254.09;;;2.75;100.00
69751;BME280;57335;52.288;6.056;2024-03-17T03:33:30;102262.31;;;2.80;100.00
69751;BME280;57335;52.288;6.056;2024-03-17T03:35:56;102258.81;;;2.81;100.00
69751;BME280;57335;52.288;6.056;2024-03-17T03:38:22;102254.31;;;2.83;100.00
69751;BME280;57335;52.288;6.056;2024-03-17T03:40:48;102261.34;;;2.92;100.00
69751;BME280;57335;52.288;6.056;2024-03-17T03:43:14;102258.22;;;2.89;100.00
69751;BME280;57335;52.288;6.056;2024-03-17T03:45:40;102270.31;;;2.99;100.00
69751;BME280;57335;52.288;6.056;2024-03-17T03:48:07;102255.94;;;2.95;100.00
69751;BME280;57335;52.288;6.056;2024-03-17T03:50:37;102263.13;;;3.03;100.00
69751;BME280;57335;52.288;6.056;2024-03-17T03:53:04;102264.63;;;3.06;100.00
69751;BME280;57335;52.288;6.056;2024-03-17T03:55:30;102258.03;;;3.13;100.00
69751;BME280;57335;52.288;6.056;2024-03-17T03:57:56;102252.28;;;3.09;100.00
69751;BME280;57335;52.288;6.056;2024-03-17T04:00:22;102254.00;;;3.20;100.00
69751;BME280;57335;52.288;6.056;2024-03-17T04:02:50;102239.41;;;3.19;100.00
69751;BME280;57335;52.288;6.056;2024-03-17T04:05:16;102242.44;;;3.24;100.00
69751;BME280;57335;52.288;6.056;2024-03-17T04:07:41;102245.13;;;3.34;100.00
69751;BME280;57335;52.288;6.056;2024-03-17T04:10:09;102252.50;;;3.38;100.00
69751;BME280;57335;52.288;6.056;2024-03-17T04:12:35;102240.25;;;3.40;100.00
69751;BME280;57335;52.288;6.056;2024-03-17T04:15:00;102222.88;;;3.31;100.00
69751;BME280;57335;52.288;6.056;2024-03-17T04:17:26;102233.88;;;3.45;100.00
69751;BME280;57335;52.288;6.056;2024-03-17T04:19:53;102232.44;;;3.52;100.00
69751;BME280;57335;52.288;6.056;2024-03-17T04:22:20;102226.88;;;3.56;100.00
69751;BME280;57335;52.288;6.056;2024-03-17T04:24:46;102217.09;;;3.60;100.00
69751;BME280;57335;52.288;6.056;2024-03-17T04:27:13;102221.75;;;3.66;100.00
69751;BME280;57335;52.288;6.056;2024-03-17T04:29:41;102209.88;;;3.64;100.00
69751;BME280;57335;52.288;6.056;2024-03-17T04:32:06;102215.13;;;3.73;100.00
69751;BME280;57335;52.288;6.056;2024-03-17T04:34:32;102217.09;;;3.81;100.00
69751;BME280;57335;52.288;6.056;2024-03-17T04:36:58;102203.97;;;3.83;100.00
69751;BME280;57335;52.288;6.056;2024-03-17T04:39:25;102207.84;;;3.88;100.00
69751;BME280;57335;52.288;6.056;2024-03-17T04:41:51;102199.66;;;3.93;100.00
69751;BME280;57335;52.288;6.056;2024-03-17T04:44:17;102204.63;;;3.96;100.00
69751;BME280;57335;52.288;6.056;2024-03-17T04:46:43;102189.56;;;3.90;100.00
69751;BME280;57335;52.288;6.056;2024-03-17T04:49:08;102180.69;;;3.92;100.00
69751;BME280;57335;52.288;6.056;2024-03-17T04:51:34;102185.75;;;3.94;100.00
69751;BME280;57335;52.288;6.056;2024-03-17T04:54:01;102184.44;;;3.99;100.00
69751;BME280;57335;52.288;6.056;2024-03-17T04:56:29;102190.19;;;4.03;100.00
69751;BME280;57335;52.288;6.056;2024-03-17T04:58:55;102196.75;;;4.07;100.00
69751;BME280;57335;52.288;6.056;2024-03-17T05:01:21;102194.16;;;4.07;100.00
69751;BME280;57335;52.288;6.056;2024-03-17T05:03:46;102176.00;;;4.07;100.00
69751;BME280;57335;52.288;6.056;2024-03-17T05:06:12;102184.00;;;4.25;100.00
69751;BME280;57335;52.288;6.056;2024-03-17T05:08:37;102172.63;;;4.16;100.00
69751;BME280;57335;52.288;6.056;2024-03-17T05:11:04;102169.78;;;4.19;100.00
69751;BME280;57335;52.288;6.056;2024-03-17T05:13:35;102174.44;;;4.26;100.00
69751;BME280;57335;52.288;6.056;2024-03-17T05:16:01;102177.03;;;4.26;100.00
69751;BME280;57335;52.288;6.056;2024-03-17T05:18:27;102175.91;;;4.18;100.00
69751;BME280;57335;52.288;6.056;2024-03-17T05:20:59;102191.94;;;4.33;100.00
69751;BME280;57335;52.288;6.056;2024-03-17T05:23:29;102196.88;;;4.36;100.00
69751;BME280;57335;52.288;6.056;2024-03-17T05:25:55;102186.59;;;4.35;100.00
69751;BME280;57335;52.288;6.056;2024-03-17T05:28:21;102202.63;;;4.40;100.00
69751;BME280;57335;52.288;6.056;2024-03-17T05:30:47;102180.03;;;4.31;100.00
69751;BME280;57335;52.288;6.056;2024-03-17T05:33:13;102192.22;;;4.40;100.00
69751;BME280;57335;52.288;6.056;2024-03-17T05:35:39;102188.66;;;4.31;100.00
69751;BME280;57335;52.288;6.056;2024-03-17T05:38:04;102199.34;;;4.38;100.00
69751;BME280;57335;52.288;6.056;2024-03-17T05:40:30;102186.22;;;4.39;100.00
69751;BME280;57335;52.288;6.056;2024-03-17T05:42:58;102193.63;;;4.44;100.00
69751;BME280;57335;52.288;6.056;2024-03-17T05:45:25;102196.91;;;4.46;100.00
69751;BME280;57335;52.288;6.056;2024-03-17T05:47:50;102177.44;;;4.31;100.00
69751;BME280;57335;52.288;6.056;2024-03-17T05:50:16;102195.28;;;4.45;100.00
69751;BME280;57335;52.288;6.056;2024-03-17T05:52:42;102185.25;;;4.40;100.00
69751;BME280;57335;52.288;6.056;2024-03-17T05:55:07;102192.69;;;4.45;100.00
69751;BME280;57335;52.288;6.056;2024-03-17T05:57:33;102194.47;;;4.54;100.00
69751;BME280;57335;52.288;6.056;2024-03-17T05:59:58;102193.00;;;4.62;100.00
69751;BME280;57335;52.288;6.056;2024-03-17T06:02:24;102196.84;;;4.67;100.00
69751;BME280;57335;52.288;6.056;2024-03-17T06:04:49;102179.31;;;4.59;100.00
69751;BME280;57335;52.288;6.056;2024-03-17T06:07:15;102187.66;;;4.73;100.00
69751;BME280;57335;52.288;6.056;2024-03-17T06:09:40;102179.75;;;4.74;100.00
69751;BME280;57335;52.288;6.056;2024-03-17T06:12:06;102157.03;;;4.67;100.00
69751;BME280;57335;52.288;6.056;2024-03-17T06:14:32;102168.53;;;4.74;100.00
69751;BME280;57335;52.288;6.056;2024-03-17T06:16:59;102183.59;;;4.80;100.00
69751;BME280;57335;52.288;6.056;2024-03-17T06:19:25;102182.63;;;4.81;100.00
69751;BME280;57335;52.288;6.056;2024-03-17T06:21:51;102168.53;;;4.74;100.00
69751;BME280;57335;52.288;6.056;2024-03-17T06:24:16;102180.19;;;4.79;100.00
69751;BME280;57335;52.288;6.056;2024-03-17T06:26:42;102181.66;;;4.82;100.00
69751;BME280;57335;52.288;6.056;2024-03-17T06:29:08;102173.22;;;4.90;100.00
69751;BME280;57335;52.288;6.056;2024-03-17T06:31:33;102165.16;;;4.83;100.00
69751;BME280;57335;52.288;6.056;2024-03-17T06:33:59;102170.47;;;4.91;100.00
69751;BME280;57335;52.288;6.056;2024-03-17T06:36:24;102167.19;;;4.89;100.00
69751;BME280;57335;52.288;6.056;2024-03-17T06:38:50;102175.66;;;5.01;100.00
69751;BME280;57335;52.288;6.056;2024-03-17T06:41:16;102168.41;;;5.05;100.00
69751;BME280;57335;52.288;6.056;2024-03-17T06:43:42;102187.16;;;5.18;100.00
69751;BME280;57335;52.288;6.056;2024-03-17T06:46:08;102177.47;;;5.20;100.00
69751;BME280;57335;52.288;6.056;2024-03-17T06:48:34;102186.50;;;5.26;100.00
69751;BME280;57335;52.288;6.056;2024-03-17T06:51:00;102173.38;;;5.27;100.00
69751;BME280;57335;52.288;6.056;2024-03-17T06:53:25;102170.72;;;5.37;100.00
69751;BME280;57335;52.288;6.056;2024-03-17T06:55:55;102173.88;;;5.50;100.00
69751;BME280;57335;52.288;6.056;2024-03-17T06:58:26;102173.19;;;5.58;100.00
69751;BME280;57335;52.288;6.056;2024-03-17T07:01:00;102165.38;;;5.58;100.00
69751;BME280;57335;52.288;6.056;2024-03-17T07:03:28;102170.44;;;5.69;100.00
69751;BME280;57335;52.288;6.056;2024-03-17T07:06:00;102171.72;;;5.83;100.00
69751;BME280;57335;52.288;6.056;2024-03-17T07:08:30;102171.84;;;6.01;100.00
69751;BME280;57335;52.288;6.056;2024-03-17T07:10:56;102174.13;;;6.14;100.00
69751;BME280;57335;52.288;6.056;2024-03-17T07:13:22;102180.34;;;6.31;100.00
69751;BME280;57335;52.288;6.056;2024-03-17T07:15:48;102181.03;;;6.33;100.00
69751;BME280;57335;52.288;6.056;2024-03-17T07:18:13;102164.44;;;6.34;100.00
69751;BME280;57335;52.288;6.056;2024-03-17T07:20:39;102169.84;;;6.50;100.00
69751;BME280;57335;52.288;6.056;2024-03-17T07:23:04;102170.41;;;6.72;100.00
69751;BME280;57335;52.288;6.056;2024-03-17T07:25:30;102178.44;;;6.96;100.00
69751;BME280;57335;52.288;6.056;2024-03-17T07:27:55;102176.72;;;7.23;100.00
69751;BME280;57335;52.288;6.056;2024-03-17T07:30:21;102179.56;;;7.56;100.00
69751;BME280;57335;52.288;6.056;2024-03-17T07:32:47;102183.03;;;7.91;100.00
69751;BME280;57335;52.288;6.056;2024-03-17T07:35:12;102173.09;;;8.29;100.00
69751;BME280;57335;52.288;6.056;2024-03-17T07:37:39;102194.00;;;8.79;100.00
69751;BME280;57335;52.288;6.056;2024-03-17T07:40:06;102174.44;;;9.08;100.00
69751;BME280;57335;52.288;6.056;2024-03-17T07:42:36;102185.69;;;9.42;100.00
69751;BME280;57335;52.288;6.056;2024-03-17T07:45:02;102180.94;;;9.45;100.00
69751;BME280;57335;52.288;6.056;2024-03-17T07:47:28;102176.84;;;9.59;100.00
69751;BME280;57335;52.288;6.056;2024-03-17T07:50:04;102178.16;;;9.63;100.00
69751;BME280;57335;52.288;6.056;2024-03-17T07:52:31;102174.56;;;9.48;100.00
69751;BME280;57335;52.288;6.056;2024-03-17T07:54:57;102189.47;;;9.47;100.00
69751;BME280;57335;52.288;6.056;2024-03-17T07:57:23;102178.38;;;9.21;100.00
69751;BME280;57335;52.288;6.056;2024-03-17T07:59:51;102175.75;;;9.29;100.00
69751;BME280;57335;52.288;6.056;2024-03-17T08:02:17;102181.63;;;9.23;100.00
69751;BME280;57335;52.288;6.056;2024-03-17T08:04:43;102192.91;;;9.23;100.00
69751;BME280;57335;52.288;6.056;2024-03-17T08:07:10;102205.16;;;9.14;100.00
69751;BME280;57335;52.288;6.056;2024-03-17T08:09:36;102200.91;;;9.13;100.00
69751;BME280;57335;52.288;6.056;2024-03-17T08:12:02;102184.72;;;9.02;100.00
69751;BME280;57335;52.288;6.056;2024-03-17T08:14:30;102191.09;;;9.07;100.00
69751;BME280;57335;52.288;6.056;2024-03-17T08:16:56;102187.81;;;9.05;100.00
69751;BME280;57335;52.288;6.056;2024-03-17T08:19:21;102196.31;;;9.15;100.00
69751;BME280;57335;52.288;6.056;2024-03-17T08:21:53;102190.94;;;9.42;100.00
69751;BME280;57335;52.288;6.056;2024-03-17T08:24:19;102184.81;;;9.82;100.00
69751;BME280;57335;52.288;6.056;2024-03-17T08:26:44;102178.69;;;9.98;100.00
69751;BME280;57335;52.288;6.056;2024-03-17T08:29:11;102187.13;;;10.33;100.00
69751;BME280;57335;52.288;6.056;2024-03-17T08:31:36;102184.84;;;10.61;98.68
69751;BME280;57335;52.288;6.056;2024-03-17T08:34:02;102171.16;;;10.74;97.63
69751;BME280;57335;52.288;6.056;2024-03-17T08:36:28;102174.13;;;11.17;95.91
69751;BME280;57335;52.288;6.056;2024-03-17T08:38:53;102182.97;;;11.54;94.59
69751;BME280;57335;52.288;6.056;2024-03-17T08:41:20;102185.81;;;11.67;91.97
69751;BME280;57335;52.288;6.056;2024-03-17T08:43:45;102182.28;;;11.75;90.75
69751;BME280;57335;52.288;6.056;2024-03-17T08:46:11;102179.75;;;11.82;91.13
69751;BME280;57335;52.288;6.056;2024-03-17T08:48:40;102177.41;;;12.02;90.55
69751;BME280;57335;52.288;6.056;2024-03-17T08:51:07;102180.72;;;11.81;86.29
69751;BME280;57335;52.288;6.056;2024-03-17T08:53:34;102172.22;;;11.78;91.18
69751;BME280;57335;52.288;6.056;2024-03-17T08:56:00;102173.56;;;11.60;88.24
69751;BME280;57335;52.288;6.056;2024-03-17T08:58:25;102177.88;;;11.37;91.00
69751;BME280;57335;52.288;6.056;2024-03-17T09:00:51;102176.53;;;11.27;92.62
69751;BME280;57335;52.288;6.056;2024-03-17T09:03:17;102174.16;;;11.32;96.70
69751;BME280;57335;52.288;6.056;2024-03-17T09:05:45;102167.25;;;11.16;94.14
69751;BME280;57335;52.288;6.056;2024-03-17T09:08:16;102160.66;;;11.20;95.42
69751;BME280;57335;52.288;6.056;2024-03-17T09:10:43;102153.78;;;10.96;93.40
69751;BME280;57335;52.288;6.056;2024-03-17T09:13:12;102171.81;;;10.99;94.94
69751;BME280;57335;52.288;6.056;2024-03-17T09:15:38;102163.81;;;10.92;95.86
69751;BME280;57335;52.288;6.056;2024-03-17T09:18:04;102175.13;;;10.70;94.30
69751;BME280;57335;52.288;6.056;2024-03-17T09:20:29;102158.16;;;10.57;96.60
69751;BME280;57335;52.288;6.056;2024-03-17T09:22:55;102166.25;;;10.48;98.51
69751;BME280;57335;52.288;6.056;2024-03-17T09:25:21;102153.66;;;10.43;98.98
69751;BME280;57335;52.288;6.056;2024-03-17T09:27:46;102158.09;;;10.43;98.73
69751;BME280;57335;52.288;6.056;2024-03-17T09:30:12;102152.97;;;10.49;98.80
69751;BME280;57335;52.288;6.056;2024-03-17T09:32:38;102156.72;;;10.55;100.00
69751;BME280;57335;52.288;6.056;2024-03-17T09:35:06;102140.84;;;10.48;99.96
69751;BME280;57335;52.288;6.056;2024-03-17T09:37:32;102148.22;;;10.53;96.54
69751;BME280;57335;52.288;6.056;2024-03-17T09:39:58;102150.06;;;10.67;98.92
69751;BME280;57335;52.288;6.056;2024-03-17T09:42:26;102146.44;;;10.68;96.73
69751;BME280;57335;52.288;6.056;2024-03-17T09:44:53;102139.81;;;10.57;98.22
69751;BME280;57335;52.288;6.056;2024-03-17T09:47:23;102142.16;;;10.52;98.01
69751;BME280;57335;52.288;6.056;2024-03-17T09:49:51;102143.06;;;10.60;100.00
69751;BME280;57335;52.288;6.056;2024-03-17T09:52:22;102153.44;;;10.53;96.30
69751;BME280;57335;52.288;6.056;2024-03-17T09:55:17;102138.06;;;10.50;97.55
69751;BME280;57335;52.288;6.056;2024-03-17T09:57:45;102153.72;;;10.35;96.30
69751;BME280;57335;52.288;6.056;2024-03-17T10:00:15;102137.47;;;10.40;99.20
69751;BME280;57335;52.288;6.056;2024-03-17T10:02:47;102140.09;;;10.40;100.00
69751;BME280;57335;52.288;6.056;2024-03-17T10:05:22;102140.59;;;10.35;99.98
69751;BME280;57335;52.288;6.056;2024-03-17T10:07:51;102145.81;;;10.43;99.99
69751;BME280;57335;52.288;6.056;2024-03-17T10:10:18;102142.38;;;10.43;99.21
69751;BME280;57335;52.288;6.056;2024-03-17T10:12:49;102131.56;;;10.37;97.72
69751;BME280;57335;52.288;6.056;2024-03-17T10:15:16;102137.66;;;10.30;100.00
69751;BME280;57335;52.288;6.056;2024-03-17T10:17:43;102131.47;;;10.23;98.69
69751;BME280;57335;52.288;6.056;2024-03-17T10:20:16;102135.38;;;10.27;98.14
69751;BME280;57335;52.288;6.056;2024-03-17T10:23:04;102124.75;;;10.20;98.67
69751;BME280;57335;52.288;6.056;2024-03-17T10:25:32;102136.19;;;10.35;100.00
69751;BME280;57335;52.288;6.056;2024-03-17T10:27:59;102127.84;;;10.24;100.00
69751;BME280;57335;52.288;6.056;2024-03-17T10:30:25;102121.97;;;10.22;99.71
69751;BME280;57335;52.288;6.056;2024-03-17T10:32:59;102120.63;;;10.26;97.10
69751;BME280;57335;52.288;6.056;2024-03-17T10:35:35;102142.41;;;10.26;96.31
69751;BME280;57335;52.288;6.056;2024-03-17T10:38:05;102135.06;;;10.30;98.47
69751;BME280;57335;52.288;6.056;2024-03-17T10:40:33;102127.22;;;10.22;98.66
69751;BME280;57335;52.288;6.056;2024-03-17T10:43:02;102110.16;;;10.26;99.53
69751;BME280;57335;52.288;6.056;2024-03-17T10:45:28;102111.78;;;10.35;99.66
69751;BME280;57335;52.288;6.056;2024-03-17T10:48:01;102112.00;;;10.48;99.51
69751;BME280;57335;52.288;6.056;2024-03-17T10:50:35;102117.50;;;10.62;99.08
69751;BME280;57335;52.288;6.056;2024-03-17T10:53:02;102110.50;;;10.77;100.00
69751;BME280;57335;52.288;6.056;2024-03-17T10:55:45;102102.28;;;10.80;98.74
69751;BME280;57335;52.288;6.056;2024-03-17T10:58:23;102112.66;;;10.96;97.31
69751;BME280;57335;52.288;6.056;2024-03-17T11:00:56;102107.69;;;11.02;97.18
69751;BME280;57335;52.288;6.056;2024-03-17T11:03:23;102107.84;;;11.00;94.23
69751;BME280;57335;52.288;6.056;2024-03-17T11:05:51;102107.75;;;10.93;94.29
69751;BME280;57335;52.288;6.056;2024-03-17T11:08:18;102104.72;;;11.05;96.04
69751;BME280;57335;52.288;6.056;2024-03-17T11:10:51;102117.00;;;11.04;93.35
69751;BME280;57335;52.288;6.056;2024-03-17T11:13:28;102117.03;;;11.19;98.51
69751;BME280;57335;52.288;6.056;2024-03-17T11:15:56;102118.31;;;11.23;92.11
69751;BME280;57335;52.288;6.056;2024-03-17T11:21:28;102124.13;;;11.33;91.08
69751;BME280;57335;52.288;6.056;2024-03-17T11:23:58;102117.34;;;11.39;90.22
69751;BME280;57335;52.288;6.056;2024-03-17T11:26:32;102106.22;;;11.37;92.27
69751;BME280;57335;52.288;6.056;2024-03-17T11:28:58;102118.34;;;11.53;91.51
69751;BME280;57335;52.288;6.056;2024-03-17T11:34:02;102105.41;;;11.51;91.80
69751;BME280;57335;52.288;6.056;2024-03-17T11:36:32;102113.44;;;11.50;89.43
69751;BME280;57335;52.288;6.056;2024-03-17T11:39:05;102102.75;;;11.36;90.62
69751;BME280;57335;52.288;6.056;2024-03-17T11:44:23;102111.28;;;11.38;92.77
69751;BME280;57335;52.288;6.056;2024-03-17T11:47:04;102113.38;;;11.43;90.81
69751;BME280;57335;52.288;6.056;2024-03-17T11:49:37;102107.66;;;11.40;92.42
69751;BME280;57335;52.288;6.056;2024-03-17T11:52:11;102103.13;;;11.33;92.40
69751;BME280;57335;52.288;6.056;2024-03-17T11:54:40;102101.44;;;11.41;94.01
69751;BME280;57335;52.288;6.056;2024-03-17T11:57:09;102099.53;;;11.49;95.10
69751;BME280;57335;52.288;6.056;2024-03-17T11:59:35;102091.91;;;11.54;94.52
69751;BME280;57335;52.288;6.056;2024-03-17T12:02:02;102078.59;;;11.71;94.67
69751;BME280;57335;52.288;6.056;2024-03-17T12:04:28;102083.47;;;11.74;91.99
69751;BME280;57335;52.288;6.056;2024-03-17T12:06:58;102073.16;;;11.72;90.94
69751;BME280;57335;52.288;6.056;2024-03-17T12:09:28;102071.25;;;11.81;91.00
69751;BME280;57335;52.288;6.056;2024-03-17T12:12:04;102072.63;;;11.62;89.23
69751;BME280;57335;52.288;6.056;2024-03-17T12:14:31;102069.19;;;11.47;88.94
69751;BME280;57335;52.288;6.056;2024-03-17T12:17:01;102063.75;;;11.48;91.57
69751;BME280;57335;52.288;6.056;2024-03-17T12:19:28;102058.06;;;11.45;89.33
69751;BME280;57335;52.288;6.056;2024-03-17T12:21:56;102073.69;;;11.68;90.00
69751;BME280;57335;52.288;6.056;2024-03-17T12:24:23;102057.50;;;11.64;90.21
69751;BME280;57335;52.288;6.056;2024-03-17T12:26:50;102040.19;;;11.70;92.49
69751;BME280;57335;52.288;6.056;2024-03-17T12:29:30;102047.97;;;11.78;95.38
69751;BME280;57335;52.288;6.056;2024-03-17T12:32:07;102049.22;;;11.82;88.25
69751;BME280;57335;52.288;6.056;2024-03-17T12:34:40;102034.03;;;11.77;89.97
69751;BME280;57335;52.288;6.056;2024-03-17T12:37:06;102040.59;;;11.88;89.41
69751;BME280;57335;52.288;6.056;2024-03-17T12:39:33;102046.50;;;11.90;90.38
69751;BME280;57335;52.288;6.056;2024-03-17T12:42:13;102043.16;;;11.96;96.14
69751;BME280;57335;52.288;6.056;2024-03-17T12:44:48;102042.31;;;12.11;95.05
69751;BME280;57335;52.288;6.056;2024-03-17T12:47:21;102025.91;;;12.09;92.37
69751;BME280;57335;52.288;6.056;2024-03-17T12:54:44;102020.53;;;12.17;89.54
69751;BME280;57335;52.288;6.056;2024-03-17T12:57:15;102007.31;;;12.10;88.40
69751;BME280;57335;52.288;6.056;2024-03-17T12:59:59;102012.09;;;12.22;92.72
69751;BME280;57335;52.288;6.056;2024-03-17T13:02:44;102014.09;;;12.20;94.04
69751;BME280;57335;52.288;6.056;2024-03-17T13:05:17;101998.75;;;12.23;90.92